METAR Data
IDs: Format: Raw Decoded Include TAF

Data at: 0855 UTC 03 Aug 2021

KTRK 030835Z AUTO 00000KT 10SM CLR 11/02 A3035 RMK AO2
KTRK 030815Z AUTO 00000KT 10SM CLR 10/02 A3035 RMK AO2
KTRK 030755Z AUTO 00000KT 10SM CLR 13/02 A3035 RMK AO2
KTRK 030735Z AUTO 00000KT 10SM CLR 10/01 A3035 RMK AO2
KTRK 030715Z AUTO 00000KT 10SM CLR 13/01 A3036 RMK AO2
KTRK 030655Z AUTO 00000KT 10SM CLR 13/02 A3035 RMK AO2
KTRK 030635Z AUTO 00000KT 10SM CLR 13/02 A3035 RMK AO2
KTRK 030615Z AUTO 00000KT 10SM CLR 14/02 A3035 RMK AO2
KTRK 030555Z AUTO 00000KT 10SM CLR 15/02 A3036 RMK AO2
KTRK 030535Z AUTO 00000KT 10SM CLR 15/02 A3036 RMK AO2
KTRK 030515Z AUTO 00000KT 10SM CLR 18/02 A3036 RMK AO2
KTRK 030455Z AUTO 00000KT 10SM CLR 16/02 A3035 RMK AO2
KTRK 030435Z AUTO 15005KT 10SM CLR 18/02 A3035 RMK AO2
KTRK 030415Z AUTO 00000KT 10SM CLR 17/01 A3035 RMK AO2
KTRK 030355Z AUTO 00000KT 10SM CLR 20/01 A3035 RMK AO2
KTRK 030335Z AUTO 00000KT 10SM CLR 21/01 A3035 RMK AO2
KTRK 030315Z AUTO 26007KT 10SM CLR 23/01 A3035 RMK AO2
KTRK 030255Z AUTO 27008KT 10SM CLR 24/01 A3034 RMK AO2
KTRK 030235Z AUTO 26006KT 10SM CLR 25/02 A3034 RMK AO2
KTRK 030215Z AUTO 28009KT 10SM CLR 26/02 A3033 RMK AO2
KTRK 030155Z AUTO 30013KT 10SM CLR 26/02 A3033 RMK AO2 LTG DSNT SE
KTRK 030135Z AUTO 24007KT 10SM CLR 27/00 A3033 RMK AO2
KTRK 030115Z AUTO 22005G14KT 10SM CLR 28/00 A3033 RMK AO2
KTRK 030050Z AUTO 26010KT 10SM 29/01 A3033 HZ
KTRK 022345Z AUTO 29008G22KT 10SM SCT090 BKN090 29/01 A3033 HZ
KTRK 022245Z AUTO 23003G16KT 10SM SKC 31/M02 A3033 HZ
KTRK 022145Z AUTO 26009G16KT 10SM SKC 32/000 A3034 HZ
KTRK 022050Z AUTO 23011G15KT 10SM SKC 31/M01 A3035 HZ
KTRK 021950Z AUTO 17010G15KT 10SM SKC 30/04 A3035 HZ
KTRK 021850Z AUTO 13010KT 10SM SKC 28/05 A3036 HZ
KTRK 021750Z AUTO 00000KT 10SM SKC 25/05 A3037 FU
KTRK 021650Z AUTO 00000KT 10SM SKC 21/05 A3039 FU
KTRK 021545Z AUTO 00000KT 10SM SKC 15/03 A3041 FU
KTRK 021445Z AUTO 00000KT 10SM SKC 11/03 A3041 FU
KTRK 021345Z AUTO 00000KT 10SM SKC 08/02 A3040
KTRK 021335Z AUTO 00000KT 10SM CLR 06/02 A3040 RMK AO2
KTRK 021315Z AUTO 00000KT 10SM CLR 07/02 A3040 RMK AO2
KTRK 021255Z AUTO 00000KT 10SM CLR 07/02 A3039 RMK AO2
KTRK 021235Z AUTO 00000KT 10SM CLR 07/02 A3039 RMK AO2
KTRK 021215Z AUTO 00000KT 10SM CLR 08/02 A3038 RMK AO2
KTRK 021155Z AUTO 00000KT 10SM CLR 08/02 A3038 RMK AO2
KTRK 021135Z AUTO 00000KT 10SM CLR 08/02 A3038 RMK AO2
KTRK 021115Z AUTO 00000KT 10SM CLR 07/02 A3037 RMK AO2
KTRK 021055Z AUTO 00000KT 10SM CLR 07/02 A3038 RMK AO2
KTRK 021035Z AUTO 00000KT 10SM CLR 08/02 A3038 RMK AO2
KTRK 021015Z AUTO 00000KT 10SM CLR 10/01 A3038 RMK AO2
KTRK 020955Z AUTO 00000KT 10SM CLR 09/01 A3038 RMK AO2
KTRK 020935Z AUTO 00000KT 10SM CLR 11/03 A3038 RMK AO2
KTRK 020915Z AUTO 00000KT 10SM CLR 10/03 A3038 RMK AO2
KTRK 020855Z AUTO 00000KT 10SM CLR 08/01 A3038 RMK AO2
KTRK 020835Z AUTO 00000KT 10SM CLR 10/02 A3038 RMK AO2
KTRK 020815Z AUTO 00000KT 10SM CLR 11/02 A3038 RMK AO2
KTRK 020755Z AUTO 17003KT 10SM CLR 10/02 A3038 RMK AO2
KTRK 020735Z AUTO 15003KT 10SM CLR 10/00 A3038 RMK AO2
KTRK 020715Z AUTO 00000KT 10SM CLR 14/02 A3038 RMK AO2
KTRK 020655Z AUTO 00000KT 10SM CLR 13/02 A3038 RMK AO2
KTRK 020635Z AUTO 16004KT 10SM CLR 12/02 A3038 RMK AO2
KTRK 020615Z AUTO 00000KT 10SM CLR 13/02 A3037 RMK AO2
KTRK 020555Z AUTO 00000KT 10SM CLR 13/01 A3038 RMK AO2
KTRK 020535Z AUTO 13003KT 10SM CLR 15/01 A3037 RMK AO2
KTRK 020515Z AUTO 00000KT 10SM CLR 15/01 A3037 RMK AO2
KTRK 020455Z AUTO 00000KT 10SM CLR 15/01 A3037 RMK AO2
KTRK 020435Z AUTO 17003KT 10SM CLR 16/01 A3037 RMK AO2 LTG DSNT E AND SE
KTRK 020415Z AUTO 00000KT 10SM CLR 19/01 A3035 RMK AO2
KTRK 020355Z AUTO 00000KT 10SM CLR 19/01 A3034 RMK AO2
KTRK 020335Z AUTO 23004KT 10SM CLR 21/01 A3034 RMK AO2
KTRK 020315Z AUTO 25006KT 10SM CLR 22/01 A3033 RMK AO2 LTG DSNT SE
KTRK 020255Z AUTO 26004G09KT 10SM CLR 23/01 A3033 RMK AO2 LTG DSNT SE
KTRK 020235Z AUTO 27007G15KT 10SM CLR 25/01 A3032 RMK AO2
KTRK 020215Z AUTO 26010G18KT 10SM CLR 25/01 A3031 RMK AO2
KTRK 020155Z AUTO 27009KT 10SM CLR 26/01 A3031 RMK AO2 LTG DSNT E AND SE
KTRK 020135Z AUTO 26010G17KT 10SM CLR 27/01 A3031 RMK AO2
KTRK 020115Z AUTO 28013G19KT 10SM CLR 27/01 A3030 RMK AO2 LTG DSNT E
KTRK 020045Z AUTO 26010G15KT 10SM SKC 28/02 A3030
KTRK 012355Z AUTO 27011G15KT 10SM SCT110 29/02 A3029
KTRK 012245Z AUTO 20003KT 10SM SCT110 27/04 A3031 FU
KTRK 012145Z AUTO 24005KT 10SM SCT080 28/06 A3032 FU